KRME/RME METAR and TAF weather

Enter ICAO airport designator
Station Type Date Time Source
KRME METAR 2019/05/20 10:53 UTC NOAA

KRME 201053Z 00000KT 10SM BKN039 18/15 A2976 RMK AO2 SLP072 T01830150


Station Type Date Time Source
KRME Decoded METAR 2019/05/20 10:53 UTC NOAA

GRIFFISS AIRFIELD, NY, United States (KRME) 43-14N 075-24W
May 20, 2019 - 06:53 AM EDT / 2019.05.20 1053 UTC
Wind: Calm:0
Visibility: 10 mile(s):0
Sky conditions: mostly cloudy
Temperature: 64.9 F (18.3 C)
Dew Point: 59.0 F (15.0 C)
Relative Humidity: 81%
Pressure (altimeter): 29.76 in. Hg (1007 hPa)
ob: KRME 201053Z 00000KT 10SM BKN039 18/15 A2976 RMK AO2 SLP072 T01830150
cycle: 11

Station Type Date Time Source
KRME TAF 2019/05/20 09:33 UTC NOAA

TAF
AMD KRME 200830Z 2009/2106 25007KT P6SM BKN050
FM201400 26015G25KT P6SM BKN050

Example: see airport list